sensor_id;sensor_type;location;lat;lon;timestamp;P1;durP1;ratioP1;P2;durP2;ratioP2
31037;SDS011;17702;47.590;7.666;2022-08-21T00:00:55;4.80;;;2.33;;
31037;SDS011;17702;47.590;7.666;2022-08-21T00:03:21;1.83;;;1.73;;
31037;SDS011;17702;47.590;7.666;2022-08-21T00:05:48;3.70;;;2.05;;
31037;SDS011;17702;47.590;7.666;2022-08-21T00:08:15;14.82;;;2.28;;
31037;SDS011;17702;47.590;7.666;2022-08-21T00:10:45;3.87;;;2.33;;
31037;SDS011;17702;47.590;7.666;2022-08-21T00:13:12;5.68;;;2.10;;
31037;SDS011;17702;47.590;7.666;2022-08-21T00:15:40;5.25;;;2.08;;
31037;SDS011;17702;47.590;7.666;2022-08-21T00:18:07;9.75;;;6.78;;
31037;SDS011;17702;47.590;7.666;2022-08-21T00:20:34;5.60;;;2.42;;
31037;SDS011;17702;47.590;7.666;2022-08-21T00:23:00;3.92;;;1.73;;
31037;SDS011;17702;47.590;7.666;2022-08-21T00:25:26;4.45;;;1.67;;
31037;SDS011;17702;47.590;7.666;2022-08-21T00:27:52;4.40;;;2.20;;
31037;SDS011;17702;47.590;7.666;2022-08-21T00:30:19;3.15;;;1.90;;
31037;SDS011;17702;47.590;7.666;2022-08-21T00:32:46;7.75;;;4.75;;
31037;SDS011;17702;47.590;7.666;2022-08-21T00:35:15;8.38;;;5.45;;
31037;SDS011;17702;47.590;7.666;2022-08-21T00:37:42;5.43;;;2.13;;
31037;SDS011;17702;47.590;7.666;2022-08-21T00:40:10;3.17;;;1.80;;
31037;SDS011;17702;47.590;7.666;2022-08-21T00:42:38;6.15;;;2.13;;
31037;SDS011;17702;47.590;7.666;2022-08-21T00:45:04;6.65;;;1.67;;
31037;SDS011;17702;47.590;7.666;2022-08-21T00:47:31;8.15;;;4.13;;
31037;SDS011;17702;47.590;7.666;2022-08-21T00:49:57;5.13;;;3.25;;
31037;SDS011;17702;47.590;7.666;2022-08-21T00:52:24;7.53;;;2.38;;
31037;SDS011;17702;47.590;7.666;2022-08-21T00:54:53;3.40;;;2.30;;
31037;SDS011;17702;47.590;7.666;2022-08-21T00:57:22;9.75;;;1.90;;
31037;SDS011;17702;47.590;7.666;2022-08-21T00:59:52;5.53;;;1.63;;
31037;SDS011;17702;47.590;7.666;2022-08-21T01:02:20;7.22;;;2.40;;
31037;SDS011;17702;47.590;7.666;2022-08-21T01:04:46;4.43;;;1.98;;
31037;SDS011;17702;47.590;7.666;2022-08-21T01:07:12;4.07;;;2.78;;
31037;SDS011;17702;47.590;7.666;2022-08-21T01:09:39;3.20;;;1.67;;
31037;SDS011;17702;47.590;7.666;2022-08-21T01:12:05;6.20;;;2.47;;
31037;SDS011;17702;47.590;7.666;2022-08-21T01:14:31;3.70;;;1.95;;
31037;SDS011;17702;47.590;7.666;2022-08-21T01:16:58;5.38;;;1.80;;
31037;SDS011;17702;47.590;7.666;2022-08-21T01:19:25;2.75;;;1.50;;
31037;SDS011;17702;47.590;7.666;2022-08-21T01:21:52;5.63;;;2.00;;
31037;SDS011;17702;47.590;7.666;2022-08-21T01:24:18;4.57;;;1.70;;
31037;SDS011;17702;47.590;7.666;2022-08-21T01:26:44;4.90;;;1.85;;
31037;SDS011;17702;47.590;7.666;2022-08-21T01:31:36;1.80;;;1.70;;
31037;SDS011;17702;47.590;7.666;2022-08-21T01:34:02;3.95;;;1.50;;
31037;SDS011;17702;47.590;7.666;2022-08-21T01:36:29;2.22;;;1.52;;
31037;SDS011;17702;47.590;7.666;2022-08-21T01:38:55;5.95;;;1.65;;
31037;SDS011;17702;47.590;7.666;2022-08-21T01:41:21;3.97;;;1.73;;
31037;SDS011;17702;47.590;7.666;2022-08-21T01:43:47;5.63;;;1.67;;
31037;SDS011;17702;47.590;7.666;2022-08-21T01:46:13;3.70;;;1.75;;
31037;SDS011;17702;47.590;7.666;2022-08-21T01:48:39;2.08;;;1.95;;
31037;SDS011;17702;47.590;7.666;2022-08-21T01:51:05;5.53;;;1.77;;
31037;SDS011;17702;47.590;7.666;2022-08-21T01:53:32;3.33;;;1.58;;
31037;SDS011;17702;47.590;7.666;2022-08-21T01:56:00;6.38;;;1.77;;
31037;SDS011;17702;47.590;7.666;2022-08-21T01:58:27;4.35;;;2.35;;
31037;SDS011;17702;47.590;7.666;2022-08-21T02:00:53;3.80;;;2.47;;
31037;SDS011;17702;47.590;7.666;2022-08-21T02:03:19;4.95;;;1.85;;
31037;SDS011;17702;47.590;7.666;2022-08-21T02:05:45;2.03;;;1.45;;
31037;SDS011;17702;47.590;7.666;2022-08-21T02:08:10;3.45;;;2.00;;
31037;SDS011;17702;47.590;7.666;2022-08-21T02:10:36;5.88;;;1.60;;
31037;SDS011;17702;47.590;7.666;2022-08-21T02:13:02;3.30;;;1.88;;
31037;SDS011;17702;47.590;7.666;2022-08-21T02:15:28;7.32;;;2.03;;
31037;SDS011;17702;47.590;7.666;2022-08-21T02:17:56;2.90;;;2.28;;
31037;SDS011;17702;47.590;7.666;2022-08-21T02:20:32;1.70;;;1.60;;
31037;SDS011;17702;47.590;7.666;2022-08-21T02:23:00;5.90;;;1.67;;
31037;SDS011;17702;47.590;7.666;2022-08-21T02:25:26;6.32;;;1.88;;
31037;SDS011;17702;47.590;7.666;2022-08-21T02:27:53;3.08;;;1.52;;
31037;SDS011;17702;47.590;7.666;2022-08-21T02:30:30;3.10;;;1.67;;
31037;SDS011;17702;47.590;7.666;2022-08-21T02:32:59;3.42;;;1.65;;
31037;SDS011;17702;47.590;7.666;2022-08-21T02:35:26;2.90;;;1.58;;
31037;SDS011;17702;47.590;7.666;2022-08-21T02:37:53;3.60;;;2.00;;
31037;SDS011;17702;47.590;7.666;2022-08-21T02:40:23;5.80;;;1.85;;
31037;SDS011;17702;47.590;7.666;2022-08-21T02:42:51;3.60;;;1.90;;
31037;SDS011;17702;47.590;7.666;2022-08-21T02:45:17;5.13;;;1.85;;
31037;SDS011;17702;47.590;7.666;2022-08-21T02:47:50;1.52;;;1.42;;
31037;SDS011;17702;47.590;7.666;2022-08-21T02:50:21;4.00;;;1.80;;
31037;SDS011;17702;47.590;7.666;2022-08-21T02:53:07;4.80;;;1.77;;
31037;SDS011;17702;47.590;7.666;2022-08-21T02:55:34;4.53;;;1.88;;
31037;SDS011;17702;47.590;7.666;2022-08-21T02:58:01;3.13;;;1.90;;
31037;SDS011;17702;47.590;7.666;2022-08-21T03:00:28;3.92;;;1.77;;
31037;SDS011;17702;47.590;7.666;2022-08-21T03:02:55;3.10;;;1.80;;
31037;SDS011;17702;47.590;7.666;2022-08-21T03:05:21;2.83;;;1.70;;
31037;SDS011;17702;47.590;7.666;2022-08-21T03:07:47;6.70;;;1.92;;
31037;SDS011;17702;47.590;7.666;2022-08-21T03:10:14;3.53;;;1.90;;
31037;SDS011;17702;47.590;7.666;2022-08-21T03:12:40;3.58;;;1.58;;
31037;SDS011;17702;47.590;7.666;2022-08-21T03:15:08;5.53;;;1.80;;
31037;SDS011;17702;47.590;7.666;2022-08-21T03:17:35;5.13;;;1.80;;
31037;SDS011;17702;47.590;7.666;2022-08-21T03:20:02;4.28;;;1.90;;
31037;SDS011;17702;47.590;7.666;2022-08-21T03:22:29;2.85;;;1.75;;
31037;SDS011;17702;47.590;7.666;2022-08-21T03:24:55;3.65;;;1.80;;
31037;SDS011;17702;47.590;7.666;2022-08-21T03:27:22;3.88;;;1.65;;
31037;SDS011;17702;47.590;7.666;2022-08-21T03:29:49;4.30;;;1.95;;
31037;SDS011;17702;47.590;7.666;2022-08-21T03:32:14;4.30;;;1.65;;
31037;SDS011;17702;47.590;7.666;2022-08-21T03:34:40;4.85;;;1.95;;
31037;SDS011;17702;47.590;7.666;2022-08-21T03:37:07;9.63;;;2.05;;
31037;SDS011;17702;47.590;7.666;2022-08-21T03:39:34;6.32;;;2.03;;
31037;SDS011;17702;47.590;7.666;2022-08-21T03:42:00;10.15;;;2.10;;
31037;SDS011;17702;47.590;7.666;2022-08-21T03:44:26;2.60;;;1.90;;
31037;SDS011;17702;47.590;7.666;2022-08-21T03:46:54;4.45;;;1.90;;
31037;SDS011;17702;47.590;7.666;2022-08-21T03:49:20;5.38;;;1.85;;
31037;SDS011;17702;47.590;7.666;2022-08-21T03:51:46;3.88;;;1.92;;
31037;SDS011;17702;47.590;7.666;2022-08-21T03:54:11;2.95;;;2.05;;
31037;SDS011;17702;47.590;7.666;2022-08-21T03:56:37;4.90;;;2.13;;
31037;SDS011;17702;47.590;7.666;2022-08-21T03:59:04;3.88;;;1.77;;
31037;SDS011;17702;47.590;7.666;2022-08-21T04:01:30;2.83;;;2.30;;
31037;SDS011;17702;47.590;7.666;2022-08-21T04:03:55;5.75;;;2.03;;
31037;SDS011;17702;47.590;7.666;2022-08-21T04:06:21;4.35;;;2.30;;
31037;SDS011;17702;47.590;7.666;2022-08-21T04:08:47;2.03;;;1.83;;
31037;SDS011;17702;47.590;7.666;2022-08-21T04:11:13;7.28;;;2.15;;
31037;SDS011;17702;47.590;7.666;2022-08-21T04:13:39;11.07;;;2.45;;
31037;SDS011;17702;47.590;7.666;2022-08-21T04:16:06;3.55;;;2.20;;
31037;SDS011;17702;47.590;7.666;2022-08-21T04:18:32;11.25;;;2.35;;
31037;SDS011;17702;47.590;7.666;2022-08-21T04:20:57;5.72;;;2.17;;
31037;SDS011;17702;47.590;7.666;2022-08-21T04:23:24;2.63;;;2.00;;
31037;SDS011;17702;47.590;7.666;2022-08-21T04:25:54;3.58;;;1.70;;
31037;SDS011;17702;47.590;7.666;2022-08-21T04:28:21;5.90;;;2.40;;
31037;SDS011;17702;47.590;7.666;2022-08-21T04:30:47;2.10;;;1.90;;
31037;SDS011;17702;47.590;7.666;2022-08-21T04:33:15;2.67;;;1.42;;
31037;SDS011;17702;47.590;7.666;2022-08-21T04:35:40;9.15;;;2.70;;
31037;SDS011;17702;47.590;7.666;2022-08-21T04:38:07;3.83;;;1.80;;
31037;SDS011;17702;47.590;7.666;2022-08-21T04:40:33;4.68;;;1.95;;
31037;SDS011;17702;47.590;7.666;2022-08-21T04:43:01;4.32;;;2.30;;
31037;SDS011;17702;47.590;7.666;2022-08-21T04:48:02;3.83;;;2.30;;
31037;SDS011;17702;47.590;7.666;2022-08-21T04:56:02;3.08;;;2.08;;
31037;SDS011;17702;47.590;7.666;2022-08-21T04:58:33;11.50;;;2.10;;
31037;SDS011;17702;47.590;7.666;2022-08-21T05:01:01;2.78;;;1.80;;
31037;SDS011;17702;47.590;7.666;2022-08-21T05:03:27;5.88;;;2.00;;
31037;SDS011;17702;47.590;7.666;2022-08-21T05:05:56;2.38;;;2.22;;
31037;SDS011;17702;47.590;7.666;2022-08-21T05:08:23;4.35;;;1.90;;
31037;SDS011;17702;47.590;7.666;2022-08-21T05:10:52;5.05;;;2.78;;
31037;SDS011;17702;47.590;7.666;2022-08-21T05:13:18;4.05;;;2.38;;
31037;SDS011;17702;47.590;7.666;2022-08-21T05:15:45;4.38;;;1.83;;
31037;SDS011;17702;47.590;7.666;2022-08-21T05:18:11;3.03;;;1.65;;
31037;SDS011;17702;47.590;7.666;2022-08-21T05:20:37;4.38;;;2.00;;
31037;SDS011;17702;47.590;7.666;2022-08-21T05:23:09;2.80;;;2.28;;
31037;SDS011;17702;47.590;7.666;2022-08-21T05:25:36;5.97;;;2.30;;
31037;SDS011;17702;47.590;7.666;2022-08-21T05:28:02;2.30;;;1.98;;
31037;SDS011;17702;47.590;7.666;2022-08-21T05:30:29;5.35;;;2.35;;
31037;SDS011;17702;47.590;7.666;2022-08-21T05:32:58;3.25;;;2.00;;
31037;SDS011;17702;47.590;7.666;2022-08-21T05:35:25;3.85;;;2.03;;
31037;SDS011;17702;47.590;7.666;2022-08-21T05:37:52;5.78;;;2.30;;
31037;SDS011;17702;47.590;7.666;2022-08-21T05:40:17;8.25;;;2.13;;
31037;SDS011;17702;47.590;7.666;2022-08-21T05:42:43;3.97;;;2.50;;
31037;SDS011;17702;47.590;7.666;2022-08-21T05:45:09;4.78;;;2.30;;
31037;SDS011;17702;47.590;7.666;2022-08-21T05:47:35;2.63;;;2.38;;
31037;SDS011;17702;47.590;7.666;2022-08-21T05:50:01;2.38;;;2.03;;
31037;SDS011;17702;47.590;7.666;2022-08-21T05:52:27;8.05;;;2.70;;
31037;SDS011;17702;47.590;7.666;2022-08-21T05:54:52;5.18;;;2.97;;
31037;SDS011;17702;47.590;7.666;2022-08-21T05:57:21;3.75;;;2.90;;
31037;SDS011;17702;47.590;7.666;2022-08-21T05:59:47;3.33;;;2.67;;
31037;SDS011;17702;47.590;7.666;2022-08-21T06:02:13;2.85;;;2.65;;
31037;SDS011;17702;47.590;7.666;2022-08-21T06:04:39;3.15;;;2.20;;
31037;SDS011;17702;47.590;7.666;2022-08-21T06:07:06;6.78;;;3.22;;
31037;SDS011;17702;47.590;7.666;2022-08-21T06:09:32;3.92;;;2.80;;
31037;SDS011;17702;47.590;7.666;2022-08-21T06:11:58;3.78;;;2.45;;
31037;SDS011;17702;47.590;7.666;2022-08-21T06:17:04;6.32;;;2.83;;
31037;SDS011;17702;47.590;7.666;2022-08-21T06:21:57;3.85;;;2.08;;
31037;SDS011;17702;47.590;7.666;2022-08-21T06:24:23;8.10;;;2.60;;
31037;SDS011;17702;47.590;7.666;2022-08-21T06:26:48;2.50;;;2.30;;
31037;SDS011;17702;47.590;7.666;2022-08-21T06:29:14;2.83;;;2.55;;
31037;SDS011;17702;47.590;7.666;2022-08-21T06:31:44;4.03;;;2.08;;
31037;SDS011;17702;47.590;7.666;2022-08-21T06:34:11;2.45;;;2.20;;
31037;SDS011;17702;47.590;7.666;2022-08-21T06:36:37;2.55;;;2.20;;
31037;SDS011;17702;47.590;7.666;2022-08-21T06:39:03;4.07;;;2.30;;
31037;SDS011;17702;47.590;7.666;2022-08-21T06:41:28;4.22;;;2.38;;
31037;SDS011;17702;47.590;7.666;2022-08-21T06:43:54;3.95;;;2.50;;
31037;SDS011;17702;47.590;7.666;2022-08-21T06:46:21;5.20;;;2.30;;
31037;SDS011;17702;47.590;7.666;2022-08-21T06:48:50;4.03;;;2.28;;
31037;SDS011;17702;47.590;7.666;2022-08-21T06:51:16;6.85;;;2.58;;
31037;SDS011;17702;47.590;7.666;2022-08-21T06:53:42;5.00;;;1.90;;
31037;SDS011;17702;47.590;7.666;2022-08-21T06:56:07;2.65;;;1.85;;
31037;SDS011;17702;47.590;7.666;2022-08-21T06:58:33;2.88;;;2.40;;
31037;SDS011;17702;47.590;7.666;2022-08-21T07:00:59;6.65;;;2.08;;
31037;SDS011;17702;47.590;7.666;2022-08-21T07:03:27;2.97;;;1.98;;
31037;SDS011;17702;47.590;7.666;2022-08-21T07:06:01;3.78;;;2.13;;
31037;SDS011;17702;47.590;7.666;2022-08-21T07:08:27;2.70;;;2.00;;
31037;SDS011;17702;47.590;7.666;2022-08-21T07:10:55;2.25;;;2.05;;
31037;SDS011;17702;47.590;7.666;2022-08-21T07:13:22;1.92;;;1.83;;
31037;SDS011;17702;47.590;7.666;2022-08-21T07:15:48;2.65;;;1.80;;
31037;SDS011;17702;47.590;7.666;2022-08-21T07:18:14;2.17;;;2.00;;
31037;SDS011;17702;47.590;7.666;2022-08-21T07:20:40;4.75;;;2.20;;
31037;SDS011;17702;47.590;7.666;2022-08-21T07:23:10;3.10;;;2.08;;
31037;SDS011;17702;47.590;7.666;2022-08-21T07:25:41;5.40;;;2.78;;
31037;SDS011;17702;47.590;7.666;2022-08-21T07:28:06;5.32;;;2.10;;
31037;SDS011;17702;47.590;7.666;2022-08-21T07:30:32;2.88;;;2.20;;
31037;SDS011;17702;47.590;7.666;2022-08-21T07:32:58;2.00;;;1.63;;
31037;SDS011;17702;47.590;7.666;2022-08-21T07:35:24;2.65;;;1.90;;
31037;SDS011;17702;47.590;7.666;2022-08-21T07:37:49;6.40;;;1.85;;
31037;SDS011;17702;47.590;7.666;2022-08-21T07:40:15;4.32;;;2.30;;
31037;SDS011;17702;47.590;7.666;2022-08-21T07:42:43;2.42;;;2.10;;
31037;SDS011;17702;47.590;7.666;2022-08-21T07:45:11;3.65;;;2.08;;
31037;SDS011;17702;47.590;7.666;2022-08-21T07:47:37;5.25;;;2.03;;
31037;SDS011;17702;47.590;7.666;2022-08-21T07:50:04;2.08;;;1.83;;
31037;SDS011;17702;47.590;7.666;2022-08-21T07:52:30;3.58;;;2.00;;
31037;SDS011;17702;47.590;7.666;2022-08-21T07:54:57;2.38;;;1.65;;
31037;SDS011;17702;47.590;7.666;2022-08-21T07:57:23;1.80;;;1.65;;
31037;SDS011;17702;47.590;7.666;2022-08-21T07:59:48;2.72;;;1.83;;
31037;SDS011;17702;47.590;7.666;2022-08-21T08:02:21;2.90;;;1.60;;
31037;SDS011;17702;47.590;7.666;2022-08-21T08:04:48;2.40;;;1.70;;
31037;SDS011;17702;47.590;7.666;2022-08-21T08:07:14;4.45;;;2.05;;
31037;SDS011;17702;47.590;7.666;2022-08-21T08:09:40;3.10;;;1.77;;
31037;SDS011;17702;47.590;7.666;2022-08-21T08:12:05;1.52;;;1.42;;
31037;SDS011;17702;47.590;7.666;2022-08-21T08:14:31;2.00;;;1.60;;
31037;SDS011;17702;47.590;7.666;2022-08-21T08:16:57;2.72;;;1.60;;
31037;SDS011;17702;47.590;7.666;2022-08-21T08:19:22;3.90;;;1.90;;
31037;SDS011;17702;47.590;7.666;2022-08-21T08:21:48;3.70;;;1.77;;
31037;SDS011;17702;47.590;7.666;2022-08-21T08:24:14;1.60;;;1.50;;
31037;SDS011;17702;47.590;7.666;2022-08-21T08:26:39;1.90;;;1.80;;
31037;SDS011;17702;47.590;7.666;2022-08-21T08:29:05;4.40;;;1.95;;
31037;SDS011;17702;47.590;7.666;2022-08-21T08:31:32;5.47;;;2.22;;
31037;SDS011;17702;47.590;7.666;2022-08-21T08:33:58;2.65;;;2.20;;
31037;SDS011;17702;47.590;7.666;2022-08-21T08:36:31;2.22;;;2.13;;
31037;SDS011;17702;47.590;7.666;2022-08-21T08:38:59;2.30;;;2.20;;
31037;SDS011;17702;47.590;7.666;2022-08-21T08:41:25;2.10;;;2.00;;
31037;SDS011;17702;47.590;7.666;2022-08-21T08:43:52;4.38;;;2.28;;
31037;SDS011;17702;47.590;7.666;2022-08-21T08:46:22;2.10;;;2.00;;
31037;SDS011;17702;47.590;7.666;2022-08-21T08:48:58;2.58;;;2.08;;
31037;SDS011;17702;47.590;7.666;2022-08-21T08:54:16;2.13;;;1.73;;
31037;SDS011;17702;47.590;7.666;2022-08-21T08:56:46;2.50;;;1.92;;
31037;SDS011;17702;47.590;7.666;2022-08-21T08:59:19;2.35;;;2.15;;
31037;SDS011;17702;47.590;7.666;2022-08-21T09:01:51;2.00;;;1.90;;
31037;SDS011;17702;47.590;7.666;2022-08-21T09:04:18;2.50;;;2.30;;
31037;SDS011;17702;47.590;7.666;2022-08-21T09:12:29;2.58;;;2.05;;
31037;SDS011;17702;47.590;7.666;2022-08-21T09:15:12;3.65;;;2.03;;
31037;SDS011;17702;47.590;7.666;2022-08-21T09:18:16;1.95;;;1.85;;
31037;SDS011;17702;47.590;7.666;2022-08-21T09:26:18;2.25;;;1.92;;
31037;SDS011;17702;47.590;7.666;2022-08-21T09:28:50;11.18;;;2.22;;
31037;SDS011;17702;47.590;7.666;2022-08-21T09:31:26;2.40;;;1.83;;
31037;SDS011;17702;47.590;7.666;2022-08-21T09:34:06;2.25;;;1.85;;
31037;SDS011;17702;47.590;7.666;2022-08-21T09:36:36;4.30;;;2.13;;
31037;SDS011;17702;47.590;7.666;2022-08-21T09:39:11;10.60;;;2.10;;
31037;SDS011;17702;47.590;7.666;2022-08-21T09:41:38;2.30;;;1.55;;
31037;SDS011;17702;47.590;7.666;2022-08-21T09:44:05;2.13;;;1.52;;
31037;SDS011;17702;47.590;7.666;2022-08-21T09:46:33;4.03;;;1.50;;
31037;SDS011;17702;47.590;7.666;2022-08-21T09:49:01;2.95;;;1.65;;
31037;SDS011;17702;47.590;7.666;2022-08-21T09:56:34;3.08;;;1.30;;
31037;SDS011;17702;47.590;7.666;2022-08-21T09:59:20;5.70;;;1.42;;
31037;SDS011;17702;47.590;7.666;2022-08-21T10:01:50;2.83;;;1.55;;
31037;SDS011;17702;47.590;7.666;2022-08-21T10:04:22;1.45;;;1.10;;
31037;SDS011;17702;47.590;7.666;2022-08-21T10:06:52;1.50;;;0.90;;
31037;SDS011;17702;47.590;7.666;2022-08-21T10:09:19;2.15;;;0.95;;
31037;SDS011;17702;47.590;7.666;2022-08-21T10:14:55;2.13;;;1.20;;
31037;SDS011;17702;47.590;7.666;2022-08-21T10:17:47;2.25;;;1.30;;
31037;SDS011;17702;47.590;7.666;2022-08-21T10:20:29;2.97;;;1.00;;
31037;SDS011;17702;47.590;7.666;2022-08-21T10:23:15;2.15;;;1.20;;
31037;SDS011;17702;47.590;7.666;2022-08-21T10:25:52;1.17;;;1.00;;
31037;SDS011;17702;47.590;7.666;2022-08-21T10:28:36;2.17;;;1.17;;
31037;SDS011;17702;47.590;7.666;2022-08-21T10:36:33;2.45;;;1.00;;
31037;SDS011;17702;47.590;7.666;2022-08-21T10:47:00;1.58;;;1.00;;
31037;SDS011;17702;47.590;7.666;2022-08-21T10:55:04;1.50;;;1.40;;
31037;SDS011;17702;47.590;7.666;2022-08-21T10:57:41;1.55;;;1.45;;
31037;SDS011;17702;47.590;7.666;2022-08-21T11:00:33;2.22;;;1.20;;
31037;SDS011;17702;47.590;7.666;2022-08-21T11:08:17;1.52;;;1.02;;
31037;SDS011;17702;47.590;7.666;2022-08-21T11:10:47;1.50;;;1.40;;
31037;SDS011;17702;47.590;7.666;2022-08-21T11:16:10;2.88;;;1.05;;
31037;SDS011;17702;47.590;7.666;2022-08-21T11:24:41;1.80;;;1.33;;
31037;SDS011;17702;47.590;7.666;2022-08-21T11:27:18;1.20;;;1.00;;
31037;SDS011;17702;47.590;7.666;2022-08-21T11:29:50;0.80;;;0.80;;
31037;SDS011;17702;47.590;7.666;2022-08-21T11:43:40;1.67;;;0.90;;
31037;SDS011;17702;47.590;7.666;2022-08-21T11:49:36;0.98;;;0.77;;
31037;SDS011;17702;47.590;7.666;2022-08-21T11:54:49;3.17;;;0.98;;
31037;SDS011;17702;47.590;7.666;2022-08-21T12:00:05;1.48;;;1.23;;
31037;SDS011;17702;47.590;7.666;2022-08-21T12:02:35;1.50;;;0.80;;
31037;SDS011;17702;47.590;7.666;2022-08-21T12:05:04;1.15;;;1.05;;
31037;SDS011;17702;47.590;7.666;2022-08-21T12:10:10;1.08;;;0.82;;
31037;SDS011;17702;47.590;7.666;2022-08-21T12:12:39;1.35;;;0.90;;
31037;SDS011;17702;47.590;7.666;2022-08-21T12:17:50;1.13;;;1.00;;
31037;SDS011;17702;47.590;7.666;2022-08-21T12:20:36;0.80;;;0.80;;
31037;SDS011;17702;47.590;7.666;2022-08-21T12:23:42;1.42;;;0.55;;
31037;SDS011;17702;47.590;7.666;2022-08-21T12:26:30;1.70;;;0.70;;
31037;SDS011;17702;47.590;7.666;2022-08-21T12:29:12;1.02;;;0.50;;
31037;SDS011;17702;47.590;7.666;2022-08-21T12:32:23;1.67;;;0.82;;
31037;SDS011;17702;47.590;7.666;2022-08-21T12:37:18;3.90;;;1.00;;
31037;SDS011;17702;47.590;7.666;2022-08-21T12:40:10;0.60;;;0.60;;
31037;SDS011;17702;47.590;7.666;2022-08-21T12:42:38;0.93;;;0.90;;
31037;SDS011;17702;47.590;7.666;2022-08-21T12:45:30;2.40;;;0.80;;
31037;SDS011;17702;47.590;7.666;2022-08-21T12:53:35;2.15;;;0.80;;
31037;SDS011;17702;47.590;7.666;2022-08-21T12:56:14;9.48;;;1.58;;
31037;SDS011;17702;47.590;7.666;2022-08-21T12:58:46;2.63;;;0.80;;
31037;SDS011;17702;47.590;7.666;2022-08-21T13:04:02;3.65;;;0.73;;
31037;SDS011;17702;47.590;7.666;2022-08-21T13:06:39;2.80;;;1.00;;
31037;SDS011;17702;47.590;7.666;2022-08-21T13:09:09;0.90;;;0.70;;
31037;SDS011;17702;47.590;7.666;2022-08-21T13:11:38;1.15;;;0.70;;
31037;SDS011;17702;47.590;7.666;2022-08-21T13:14:06;0.90;;;0.55;;
31037;SDS011;17702;47.590;7.666;2022-08-21T13:16:40;0.50;;;0.50;;
31037;SDS011;17702;47.590;7.666;2022-08-21T13:19:07;1.80;;;0.73;;
31037;SDS011;17702;47.590;7.666;2022-08-21T13:21:40;0.85;;;0.65;;
31037;SDS011;17702;47.590;7.666;2022-08-21T13:24:17;3.13;;;0.82;;
31037;SDS011;17702;47.590;7.666;2022-08-21T13:26:46;0.60;;;0.60;;
31037;SDS011;17702;47.590;7.666;2022-08-21T13:29:14;2.30;;;0.98;;
31037;SDS011;17702;47.590;7.666;2022-08-21T13:31:47;1.30;;;0.90;;
31037;SDS011;17702;47.590;7.666;2022-08-21T13:34:18;0.77;;;0.65;;
31037;SDS011;17702;47.590;7.666;2022-08-21T13:36:47;1.10;;;0.68;;
31037;SDS011;17702;47.590;7.666;2022-08-21T13:39:14;1.88;;;0.50;;
31037;SDS011;17702;47.590;7.666;2022-08-21T13:41:44;0.70;;;0.70;;
31037;SDS011;17702;47.590;7.666;2022-08-21T13:44:17;2.50;;;0.60;;
31037;SDS011;17702;47.590;7.666;2022-08-21T13:46:51;2.00;;;0.80;;
31037;SDS011;17702;47.590;7.666;2022-08-21T13:49:18;2.53;;;0.65;;
31037;SDS011;17702;47.590;7.666;2022-08-21T13:51:56;3.13;;;0.70;;
31037;SDS011;17702;47.590;7.666;2022-08-21T13:54:23;0.75;;;0.75;;
31037;SDS011;17702;47.590;7.666;2022-08-21T13:56:55;1.88;;;1.00;;
31037;SDS011;17702;47.590;7.666;2022-08-21T13:59:27;0.75;;;0.60;;
31037;SDS011;17702;47.590;7.666;2022-08-21T14:01:56;2.22;;;0.70;;
31037;SDS011;17702;47.590;7.666;2022-08-21T14:04:26;1.48;;;0.70;;
31037;SDS011;17702;47.590;7.666;2022-08-21T14:07:16;0.90;;;0.70;;
31037;SDS011;17702;47.590;7.666;2022-08-21T14:09:44;1.50;;;0.90;;
31037;SDS011;17702;47.590;7.666;2022-08-21T14:12:16;0.80;;;0.80;;
31037;SDS011;17702;47.590;7.666;2022-08-21T14:14:48;1.63;;;0.82;;
31037;SDS011;17702;47.590;7.666;2022-08-21T14:17:25;2.05;;;0.80;;
31037;SDS011;17702;47.590;7.666;2022-08-21T14:20:00;2.92;;;1.30;;
31037;SDS011;17702;47.590;7.666;2022-08-21T14:25:11;1.60;;;0.77;;
31037;SDS011;17702;47.590;7.666;2022-08-21T14:28:02;3.83;;;0.70;;
31037;SDS011;17702;47.590;7.666;2022-08-21T14:33:34;1.58;;;0.90;;
31037;SDS011;17702;47.590;7.666;2022-08-21T14:36:00;2.83;;;1.45;;
31037;SDS011;17702;47.590;7.666;2022-08-21T14:38:27;3.25;;;1.08;;
31037;SDS011;17702;47.590;7.666;2022-08-21T14:40:54;3.65;;;1.02;;
31037;SDS011;17702;47.590;7.666;2022-08-21T14:43:25;1.35;;;0.80;;
31037;SDS011;17702;47.590;7.666;2022-08-21T14:45:53;0.77;;;0.75;;
31037;SDS011;17702;47.590;7.666;2022-08-21T14:48:19;2.25;;;1.00;;
31037;SDS011;17702;47.590;7.666;2022-08-21T14:50:44;1.10;;;1.00;;
31037;SDS011;17702;47.590;7.666;2022-08-21T14:53:11;1.48;;;0.98;;
31037;SDS011;17702;47.590;7.666;2022-08-21T14:55:37;2.53;;;1.00;;
31037;SDS011;17702;47.590;7.666;2022-08-21T14:58:22;3.67;;;1.10;;
31037;SDS011;17702;47.590;7.666;2022-08-21T15:00:49;1.40;;;1.23;;
31037;SDS011;17702;47.590;7.666;2022-08-21T15:03:17;1.20;;;1.10;;
31037;SDS011;17702;47.590;7.666;2022-08-21T15:05:43;2.10;;;1.27;;
31037;SDS011;17702;47.590;7.666;2022-08-21T15:08:09;1.42;;;1.05;;
31037;SDS011;17702;47.590;7.666;2022-08-21T15:10:35;5.20;;;1.20;;
31037;SDS011;17702;47.590;7.666;2022-08-21T15:13:01;3.50;;;1.30;;
31037;SDS011;17702;47.590;7.666;2022-08-21T15:15:32;1.25;;;0.90;;
31037;SDS011;17702;47.590;7.666;2022-08-21T15:18:03;2.45;;;1.08;;
31037;SDS011;17702;47.590;7.666;2022-08-21T15:20:29;1.00;;;0.85;;
31037;SDS011;17702;47.590;7.666;2022-08-21T15:22:55;1.50;;;1.05;;
31037;SDS011;17702;47.590;7.666;2022-08-21T15:25:21;1.60;;;0.90;;
31037;SDS011;17702;47.590;7.666;2022-08-21T15:27:46;1.92;;;1.60;;
31037;SDS011;17702;47.590;7.666;2022-08-21T15:30:12;2.58;;;1.45;;
31037;SDS011;17702;47.590;7.666;2022-08-21T15:32:37;2.60;;;1.00;;
31037;SDS011;17702;47.590;7.666;2022-08-21T15:35:04;8.40;;;1.50;;
31037;SDS011;17702;47.590;7.666;2022-08-21T15:37:30;2.63;;;1.50;;
31037;SDS011;17702;47.590;7.666;2022-08-21T15:39:56;3.22;;;1.23;;
31037;SDS011;17702;47.590;7.666;2022-08-21T15:42:22;1.60;;;0.88;;
31037;SDS011;17702;47.590;7.666;2022-08-21T15:44:48;1.63;;;0.80;;
31037;SDS011;17702;47.590;7.666;2022-08-21T15:47:15;3.03;;;1.13;;
31037;SDS011;17702;47.590;7.666;2022-08-21T15:49:44;2.53;;;1.27;;
31037;SDS011;17702;47.590;7.666;2022-08-21T15:52:11;2.13;;;1.13;;
31037;SDS011;17702;47.590;7.666;2022-08-21T15:54:37;1.88;;;1.02;;
31037;SDS011;17702;47.590;7.666;2022-08-21T15:57:03;2.22;;;0.80;;
31037;SDS011;17702;47.590;7.666;2022-08-21T15:59:29;3.22;;;1.08;;
31037;SDS011;17702;47.590;7.666;2022-08-21T16:02:02;3.25;;;1.10;;
31037;SDS011;17702;47.590;7.666;2022-08-21T16:04:28;3.00;;;1.10;;
31037;SDS011;17702;47.590;7.666;2022-08-21T16:06:54;2.78;;;1.00;;
31037;SDS011;17702;47.590;7.666;2022-08-21T16:09:21;2.92;;;1.38;;
31037;SDS011;17702;47.590;7.666;2022-08-21T16:11:47;3.85;;;1.38;;
31037;SDS011;17702;47.590;7.666;2022-08-21T16:14:13;2.15;;;2.00;;
31037;SDS011;17702;47.590;7.666;2022-08-21T16:16:41;4.53;;;0.98;;
31037;SDS011;17702;47.590;7.666;2022-08-21T16:19:08;2.60;;;1.20;;
31037;SDS011;17702;47.590;7.666;2022-08-21T16:21:35;4.90;;;1.13;;
31037;SDS011;17702;47.590;7.666;2022-08-21T16:24:01;3.53;;;0.90;;
31037;SDS011;17702;47.590;7.666;2022-08-21T16:26:27;1.20;;;0.88;;
31037;SDS011;17702;47.590;7.666;2022-08-21T16:28:54;2.05;;;1.10;;
31037;SDS011;17702;47.590;7.666;2022-08-21T16:31:22;4.70;;;1.42;;
31037;SDS011;17702;47.590;7.666;2022-08-21T16:33:49;2.88;;;1.35;;
31037;SDS011;17702;47.590;7.666;2022-08-21T16:36:18;2.10;;;1.08;;
31037;SDS011;17702;47.590;7.666;2022-08-21T16:38:43;2.58;;;1.25;;
31037;SDS011;17702;47.590;7.666;2022-08-21T16:41:10;1.55;;;1.20;;
31037;SDS011;17702;47.590;7.666;2022-08-21T16:43:38;2.63;;;1.15;;
31037;SDS011;17702;47.590;7.666;2022-08-21T16:46:05;3.42;;;2.28;;
31037;SDS011;17702;47.590;7.666;2022-08-21T16:48:34;4.93;;;1.15;;
31037;SDS011;17702;47.590;7.666;2022-08-21T16:51:00;1.60;;;1.20;;